createdAt,value
2018-11-26T19:37:16.150Z,17.90
2018-11-26T19:39:43.733Z,18.50
2018-11-26T19:42:11.358Z,18.73
2018-11-26T19:44:39.034Z,17.60
2018-11-26T19:47:07.590Z,19.27
2018-11-26T19:49:35.293Z,29.10
2018-11-26T19:52:03.755Z,25.37
2018-11-26T19:54:31.366Z,23.87
2018-11-26T19:56:59.009Z,23.30
2018-11-26T19:59:26.662Z,18.87
2018-11-26T20:01:54.260Z,20.40
2018-11-26T20:04:32.147Z,22.10
2018-11-26T20:06:59.787Z,19.13
2018-11-26T20:09:27.400Z,18.37
2018-11-26T20:11:55.030Z,17.23
2018-11-26T20:14:26.082Z,18.97
2018-11-26T20:16:50.401Z,19.27
2018-11-26T20:19:18.065Z,18.60
2018-11-26T20:21:45.694Z,17.20
2018-11-26T20:24:13.363Z,15.23
2018-11-26T20:26:41.157Z,15.20
2018-11-26T20:29:08.782Z,14.87
2018-11-26T20:31:36.390Z,15.20
2018-11-26T20:34:04.025Z,16.53
2018-11-26T20:36:31.633Z,15.47
2018-11-26T20:38:59.297Z,17.30
2018-11-26T20:41:26.986Z,15.07
2018-11-26T20:43:54.634Z,14.13
2018-11-26T20:46:22.254Z,14.20
2018-11-26T20:48:49.949Z,15.20
2018-11-26T20:51:17.608Z,16.97
2018-11-26T20:53:45.327Z,13.77
2018-11-26T20:56:16.422Z,16.03
2018-11-26T20:58:44.877Z,18.53
2018-11-26T21:01:12.606Z,17.50
2018-11-26T21:03:40.354Z,15.80
2018-11-26T21:06:08.094Z,15.47
2018-11-26T21:08:35.723Z,16.00
2018-11-26T21:11:03.382Z,17.17
2018-11-26T21:13:31.118Z,17.63
2018-11-26T21:15:58.796Z,16.47
2018-11-26T21:18:26.662Z,15.20
2018-11-26T21:20:54.534Z,17.17
2018-11-26T21:23:26.545Z,15.93
2018-11-26T21:25:55.497Z,15.33
2018-11-26T21:28:23.325Z,17.70
2018-11-26T21:30:52.265Z,16.17
2018-11-26T21:33:18.646Z,17.20
2018-11-26T21:35:46.585Z,17.27
2018-11-26T21:38:14.477Z,16.80
2018-11-26T21:40:42.371Z,16.10
2018-11-26T21:43:11.154Z,17.83
2018-11-26T21:45:47.302Z,16.07
2018-11-26T21:48:15.505Z,17.23
2018-11-26T21:50:43.289Z,17.70
2018-11-26T21:53:11.127Z,17.50
2018-11-26T21:55:38.780Z,17.10
2018-11-26T21:58:06.632Z,18.20
2018-11-26T22:00:34.843Z,17.50
2018-11-26T22:03:07.657Z,17.40
2018-11-26T22:05:35.813Z,16.57
2018-11-26T22:08:03.629Z,17.00
2018-11-26T22:10:31.354Z,15.87
2018-11-26T22:12:59.194Z,17.30
2018-11-26T22:15:27.118Z,18.60
2018-11-26T22:17:54.955Z,16.47
2018-11-26T22:20:23.873Z,17.33
2018-11-26T22:22:51.594Z,18.70
2018-11-26T22:25:19.675Z,19.33
2018-11-26T22:27:47.414Z,17.70
2018-11-26T22:30:32.175Z,15.83
2018-11-26T22:33:00.220Z,17.20
2018-11-26T22:35:28.177Z,19.73
2018-11-26T22:37:56.354Z,20.67
2018-11-26T22:40:25.337Z,16.87
2018-11-26T22:42:53.481Z,17.47
2018-11-26T22:45:25.480Z,18.57
2018-11-26T22:47:56.220Z,18.50
2018-11-26T22:50:24.157Z,18.57
2018-11-26T22:52:51.835Z,19.00
2018-11-26T22:55:19.543Z,17.70
2018-11-26T22:57:47.164Z,17.23
2018-11-26T23:00:53.706Z,19.50
2018-11-26T23:03:22.749Z,17.40
2018-11-26T23:05:50.401Z,18.33
2018-11-26T23:08:18.074Z,19.40
2018-11-26T23:10:45.861Z,20.20
2018-11-26T23:13:13.511Z,19.07
2018-11-26T23:15:41.171Z,19.13
2018-11-26T23:18:08.934Z,18.27
2018-11-26T23:20:36.772Z,18.77
2018-11-26T23:23:04.997Z,18.63
2018-11-26T23:25:32.605Z,18.17
2018-11-26T23:28:00.313Z,18.93
2018-11-26T23:30:28.643Z,18.90
2018-11-26T23:32:58.206Z,16.97
2018-11-26T23:35:25.841Z,18.87
2018-11-26T23:37:53.530Z,19.93
2018-11-26T23:40:21.157Z,18.60
2018-11-26T23:42:48.877Z,16.70
2018-11-26T23:45:17.550Z,18.70
2018-11-26T23:47:45.237Z,18.93
2018-11-26T23:50:13.671Z,18.83
2018-11-26T23:52:41.474Z,19.40
2018-11-26T23:55:15.862Z,16.00
2018-11-26T23:57:43.594Z,18.63
